Time;durP1;ratioP1;P1;durP2;ratioP2;P2;SDS_P1;SDS_P2;PMS_P1;PMS_P2;Temp;Humidity;BMP_temperature;BMP_pressure;BME280_temperature;BME280_humidity;BME280_pressure;Samples;Min_cycle;Max_cycle;Signal;HPM_P1;HPM_P2
2023/01/15 00:01:25;;;;;;;1.80;1.30;;;10.10;99.90;;;;;;4957928;28;20427;-76
2023/01/15 00:03:54;;;;;;;4.23;1.73;;;10.10;99.90;;;;;;4956479;29;20482;-76
2023/01/15 00:06:26;;;;;;;6.13;1.70;;;10.10;99.90;;;;;;4940927;29;20431;-76
2023/01/15 00:08:55;;;;;;;2.20;1.30;;;10.10;99.90;;;;;;4972192;28;20447;-76
2023/01/15 00:11:21;;;;;;;4.50;1.40;;;10.10;99.90;;;;;;4940705;29;20415;-76
2023/01/15 00:13:48;;;;;;;2.50;1.40;;;10.10;99.90;;;;;;4940607;29;20973;-76
2023/01/15 00:16:24;;;;;;;1.67;1.20;;;10.10;99.90;;;;;;4956260;28;20453;-76
2023/01/15 00:18:55;;;;;;;2.83;2.07;;;10.10;99.90;;;;;;4956339;29;20401;-77
2023/01/15 00:21:22;;;;;;;2.93;1.47;;;10.10;99.90;;;;;;4956074;29;20964;-76
2023/01/15 00:29:22;;;;;;;2.67;1.77;;;10.10;99.90;;;;;;4955013;28;20415;-77
2023/01/15 00:32:04;;;;;;;2.90;1.20;;;10.10;99.90;;;;;;4956214;29;20784;-77
2023/01/15 00:34:33;;;;;;;2.93;1.20;;;10.10;99.90;;;;;;4957144;29;20959;-77
2023/01/15 00:37:03;;;;;;;5.03;1.60;;;10.10;99.90;;;;;;4972123;28;20406;-77
2023/01/15 00:39:33;;;;;;;2.90;1.60;;;10.10;99.90;;;;;;4940144;29;20415;-76
2023/01/15 00:41:59;;;;;;;2.50;1.27;;;10.00;99.90;;;;;;4971866;28;20400;-76
2023/01/15 00:44:27;;;;;;;4.73;1.70;;;10.00;99.90;;;;;;4971841;28;20434;-76
2023/01/15 00:46:55;;;;;;;3.37;1.63;;;10.00;99.90;;;;;;4955730;29;20263;-76
2023/01/15 00:49:21;;;;;;;4.10;1.33;;;10.00;99.90;;;;;;4939981;29;20872;-77
2023/01/15 00:51:48;;;;;;;6.67;2.03;;;10.00;99.90;;;;;;4955858;29;20483;-76
2023/01/15 00:54:19;;;;;;;4.00;2.03;;;10.00;99.90;;;;;;4971685;28;20782;-75
2023/01/15 00:56:47;;;;;;;3.60;1.50;;;10.00;99.90;;;;;;4955662;28;20434;-76
2023/01/15 00:59:16;;;;;;;2.90;1.40;;;10.00;99.90;;;;;;4940009;29;20543;-77
2023/01/15 01:01:42;;;;;;;4.40;1.43;;;10.00;99.90;;;;;;4955981;29;20401;-77
2023/01/15 01:04:08;;;;;;;4.50;1.80;;;10.00;99.90;;;;;;4972100;28;20451;-77
2023/01/15 01:06:34;;;;;;;4.40;1.20;;;10.00;99.90;;;;;;4955633;29;20836;-78
2023/01/15 01:09:00;;;;;;;2.90;1.53;;;10.00;99.90;;;;;;4955463;29;20545;-78
2023/01/15 01:11:37;;;;;;;2.50;1.20;;;10.00;99.90;;;;;;4955667;28;20454;-76
2023/01/15 01:14:03;;;;;;;3.47;1.47;;;10.00;99.90;;;;;;4971439;28;20856;-76
2023/01/15 01:16:36;;;;;;;3.00;1.17;;;10.00;99.90;;;;;;4971494;28;20403;-78
2023/01/15 01:19:12;;;;;;;1.83;0.93;;;10.00;99.90;;;;;;4955703;29;20411;-76
2023/01/15 01:21:46;;;;;;;2.40;1.00;;;10.00;99.90;;;;;;4955670;29;20552;-77
2023/01/15 01:24:20;;;;;;;2.00;1.53;;;10.00;99.90;;;;;;4956541;29;20493;-76
2023/01/15 01:26:47;;;;;;;1.97;1.20;;;10.00;99.90;;;;;;4956496;28;20539;-77
2023/01/15 01:29:21;;;;;;;2.73;1.20;;;10.00;99.90;;;;;;4940331;29;20463;-77
2023/01/15 01:31:50;;;;;;;5.10;1.30;;;10.00;99.90;;;;;;4971539;28;20474;-77
2023/01/15 01:34:17;;;;;;;3.87;1.23;;;10.00;99.90;;;;;;4971402;28;20498;-77
2023/01/15 01:36:46;;;;;;;1.70;1.00;;;9.90;99.90;;;;;;4971170;28;20489;-77
2023/01/15 01:39:21;;;;;;;2.10;1.23;;;9.90;99.90;;;;;;4971242;28;20494;-77
2023/01/15 01:41:48;;;;;;;4.60;1.00;;;9.90;99.90;;;;;;4955347;29;20407;-77
2023/01/15 01:44:32;;;;;;;3.73;1.20;;;10.00;99.90;;;;;;4954852;28;20497;-75
2023/01/15 01:47:08;;;;;;;2.30;1.10;;;9.90;99.90;;;;;;4970738;28;20514;-76
2023/01/15 01:49:39;;;;;;;3.20;1.10;;;9.90;99.90;;;;;;4939254;29;20454;-77
2023/01/15 01:52:09;;;;;;;3.00;1.13;;;9.90;99.90;;;;;;4955145;28;20573;-76
2023/01/15 01:54:43;;;;;;;2.90;1.10;;;9.90;99.90;;;;;;4954740;29;20469;-76
2023/01/15 01:57:12;;;;;;;3.07;0.97;;;9.90;99.90;;;;;;4954828;29;20403;-76
2023/01/15 01:59:39;;;;;;;1.80;1.20;;;9.90;99.90;;;;;;4955888;28;20403;-77
2023/01/15 02:02:13;;;;;;;2.10;0.80;;;9.90;99.90;;;;;;4954546;29;20466;-79
2023/01/15 02:04:43;;;;;;;3.57;1.10;;;9.90;99.90;;;;;;4954605;29;20447;-75
2023/01/15 02:07:12;;;;;;;1.93;1.10;;;9.90;99.90;;;;;;4970615;28;20443;-76
2023/01/15 02:09:39;;;;;;;3.90;0.70;;;9.90;99.90;;;;;;4938530;29;20435;-77
2023/01/15 02:12:37;;;;;;;1.83;1.17;;;9.90;99.90;;;;;;4954536;29;20407;-76
2023/01/15 02:15:12;;;;;;;1.90;0.97;;;9.90;99.90;;;;;;4952864;28;20626;-76
2023/01/15 02:17:57;;;;;;;1.20;0.93;;;9.90;99.90;;;;;;4954459;29;20434;-76
2023/01/15 02:20:27;;;;;;;2.70;0.90;;;9.90;99.90;;;;;;4938362;29;20462;-76
2023/01/15 02:23:03;;;;;;;2.40;0.83;;;9.80;99.90;;;;;;4938401;28;20536;-75
2023/01/15 02:26:04;;;;;;;1.17;0.70;;;9.80;99.90;;;;;;4954238;29;20808;-76
2023/01/15 02:28:38;;;;;;;5.00;1.50;;;9.80;99.90;;;;;;4938341;29;20833;-77
2023/01/15 02:31:21;;;;;;;1.60;0.90;;;9.90;99.90;;;;;;4954192;28;20419;-76
2023/01/15 02:34:25;;;;;;;2.60;0.90;;;9.80;99.90;;;;;;4938660;29;20455;-76
2023/01/15 02:37:02;;;;;;;2.00;1.00;;;9.80;99.90;;;;;;4938759;29;20431;-77
2023/01/15 02:39:52;;;;;;;1.80;0.90;;;9.80;99.90;;;;;;4954387;29;20404;-77
2023/01/15 02:42:21;;;;;;;2.50;0.90;;;9.80;99.90;;;;;;4938411;29;20426;-75
2023/01/15 02:44:52;;;;;;;1.50;0.77;;;9.80;99.90;;;;;;4970312;28;20439;-76
2023/01/15 02:47:26;;;;;;;1.57;1.07;;;9.80;99.90;;;;;;4938303;29;21030;-76
2023/01/15 02:50:06;;;;;;;2.10;0.90;;;9.80;99.90;;;;;;4938457;29;20419;-76
2023/01/15 02:52:43;;;;;;;1.00;0.70;;;9.80;99.90;;;;;;4940306;29;20498;-76
2023/01/15 02:55:29;;;;;;;1.73;1.17;;;9.80;99.90;;;;;;4983695;23;20499;-76
2023/01/15 02:58:00;;;;;;;3.13;1.03;;;9.80;99.90;;;;;;4977161;28;20437;-75
2023/01/15 03:00:34;;;;;;;2.27;0.90;;;9.80;99.90;;;;;;4977428;28;20421;-76
2023/01/15 03:03:30;;;;;;;1.37;0.80;;;9.70;99.90;;;;;;4977008;28;20447;-76
2023/01/15 03:06:15;;;;;;;13.07;1.00;;;9.70;99.90;;;;;;4937255;28;20429;-76
2023/01/15 03:08:42;;;;;;;1.13;0.60;;;9.70;99.90;;;;;;4977144;28;20446;-77
2023/01/15 03:11:14;;;;;;;3.93;1.30;;;9.70;99.90;;;;;;4977077;28;20414;-76
2023/01/15 03:13:53;;;;;;;2.20;0.70;;;9.70;99.90;;;;;;4961870;28;20473;-76
2023/01/15 03:16:34;;;;;;;2.40;0.83;;;9.70;99.90;;;;;;4961072;28;20419;-76
2023/01/15 03:19:03;;;;;;;1.70;0.90;;;9.70;99.90;;;;;;4961511;28;20433;-75
2023/01/15 03:21:48;;;;;;;1.63;0.70;;;9.70;99.90;;;;;;4961476;28;20429;-77
2023/01/15 03:24:22;;;;;;;2.63;1.00;;;9.70;99.90;;;;;;4977858;28;20962;-76
2023/01/15 03:26:49;;;;;;;3.60;1.00;;;9.70;99.90;;;;;;4976688;28;20410;-76
2023/01/15 03:29:20;;;;;;;1.47;1.03;;;9.70;99.90;;;;;;4961061;28;20456;-77
2023/01/15 03:31:49;;;;;;;2.40;1.27;;;9.70;99.90;;;;;;4961237;28;20434;-76
2023/01/15 03:34:21;;;;;;;3.17;0.70;;;9.70;99.90;;;;;;4960495;28;20457;-76
2023/01/15 03:36:52;;;;;;;1.53;0.83;;;9.70;99.90;;;;;;4976414;28;20472;-76
2023/01/15 03:39:18;;;;;;;1.10;0.80;;;9.70;99.90;;;;;;4960677;28;20441;-76
2023/01/15 03:42:17;;;;;;;1.00;0.87;;;9.70;99.90;;;;;;4975174;28;20491;-76
2023/01/15 03:44:49;;;;;;;2.30;0.87;;;9.70;99.90;;;;;;4960458;28;20865;-77
2023/01/15 03:47:33;;;;;;;2.10;0.87;;;9.70;99.90;;;;;;4977557;28;20445;-75
2023/01/15 03:50:15;;;;;;;1.33;0.83;;;9.70;99.90;;;;;;4960477;28;20938;-75
2023/01/15 03:52:51;;;;;;;4.63;1.07;;;9.60;99.90;;;;;;4960226;28;20421;-76
2023/01/15 03:55:51;;;;;;;1.83;0.73;;;9.70;99.90;;;;;;4960553;28;20461;-76
2023/01/15 03:58:24;;;;;;;1.70;0.90;;;9.70;99.90;;;;;;4976171;28;20505;-76
2023/01/15 04:00:58;;;;;;;3.93;0.90;;;9.60;99.90;;;;;;4960084;28;20438;-76
2023/01/15 04:03:27;;;;;;;2.10;0.80;;;9.60;99.90;;;;;;4959817;28;20429;-75
2023/01/15 04:05:59;;;;;;;2.80;1.10;;;9.60;99.90;;;;;;4975987;28;20441;-75
2023/01/15 04:08:30;;;;;;;3.90;0.80;;;9.60;99.90;;;;;;4959769;28;20553;-75
2023/01/15 04:11:00;;;;;;;2.33;0.93;;;9.60;99.90;;;;;;4982309;23;20533;-76
2023/01/15 04:13:30;;;;;;;2.80;0.80;;;9.60;99.90;;;;;;4962981;28;20458;-76
2023/01/15 04:15:56;;;;;;;2.00;1.10;;;9.60;99.90;;;;;;4938981;29;20402;-76
2023/01/15 04:18:26;;;;;;;3.60;0.90;;;9.60;99.90;;;;;;4974125;28;20521;-76
2023/01/15 04:20:54;;;;;;;7.17;1.00;;;9.60;99.90;;;;;;4954387;28;20971;-76
2023/01/15 04:23:21;;;;;;;3.70;1.17;;;9.60;99.90;;;;;;4939796;28;20512;-76
2023/01/15 04:25:47;;;;;;;2.47;0.97;;;9.60;99.90;;;;;;4975154;28;20403;-76
2023/01/15 04:28:13;;;;;;;2.37;1.20;;;9.60;99.90;;;;;;4973758;28;20493;-75
2023/01/15 04:30:42;;;;;;;2.93;0.97;;;9.60;99.90;;;;;;4974381;28;20444;-75
2023/01/15 04:33:08;;;;;;;3.73;0.83;;;9.60;99.90;;;;;;4938240;29;20423;-76
2023/01/15 04:35:39;;;;;;;3.20;0.90;;;9.60;99.90;;;;;;4973103;28;20504;-76
2023/01/15 04:38:05;;;;;;;2.33;1.10;;;9.60;99.90;;;;;;4975066;28;20401;-76
2023/01/15 04:46:05;;;;;;;3.00;1.20;;;9.60;99.90;;;;;;4973330;28;20544;-76
2023/01/15 04:48:31;;;;;;;1.97;0.90;;;9.60;99.90;;;;;;4973485;28;20604;-76
2023/01/15 04:51:04;;;;;;;6.53;1.67;;;9.50;99.90;;;;;;4938221;29;20423;-76
2023/01/15 04:53:29;;;;;;;2.93;0.90;;;9.50;99.90;;;;;;4954343;29;20908;-76
2023/01/15 04:56:14;;;;;;;4.83;0.97;;;9.50;99.90;;;;;;4968406;28;20451;-75
2023/01/15 04:58:42;;;;;;;4.40;1.40;;;9.50;99.90;;;;;;4957463;28;20465;-76
2023/01/15 05:01:18;;;;;;;4.63;1.27;;;9.50;99.90;;;;;;4973147;28;20504;-76
2023/01/15 05:03:44;;;;;;;3.07;1.13;;;9.50;99.90;;;;;;4957143;28;20438;-76
2023/01/15 05:06:11;;;;;;;5.03;1.00;;;9.50;99.90;;;;;;4974217;28;20461;-76
2023/01/15 05:08:39;;;;;;;4.23;1.17;;;9.50;99.90;;;;;;4973949;28;20471;-76
2023/01/15 05:11:34;;;;;;;3.03;1.03;;;9.50;99.90;;;;;;4972785;28;20438;-76
2023/01/15 05:14:01;;;;;;;6.03;1.30;;;9.50;99.90;;;;;;4972811;28;21053;-76
2023/01/15 05:16:28;;;;;;;6.00;1.20;;;9.50;99.90;;;;;;4954410;28;20440;-75
2023/01/15 05:19:02;;;;;;;8.93;1.80;;;9.50;99.90;;;;;;4972677;28;20961;-75
2023/01/15 05:21:33;;;;;;;5.00;1.37;;;9.50;99.90;;;;;;4940865;28;20492;-75
2023/01/15 05:24:01;;;;;;;3.10;1.00;;;9.50;99.90;;;;;;4956413;28;20452;-76
2023/01/15 05:26:30;;;;;;;2.63;1.00;;;9.50;99.90;;;;;;4972832;28;20442;-75
2023/01/15 05:29:00;;;;;;;4.70;0.90;;;9.40;99.90;;;;;;4972185;28;20501;-75
2023/01/15 05:31:26;;;;;;;4.13;1.07;;;9.40;99.90;;;;;;4972847;28;20509;-75
2023/01/15 05:33:57;;;;;;;1.30;1.00;;;9.40;99.90;;;;;;4972405;28;20809;-76
2023/01/15 05:36:25;;;;;;;3.50;1.40;;;9.40;99.90;;;;;;4973937;28;20492;-76
2023/01/15 05:38:53;;;;;;;3.13;1.00;;;9.40;99.90;;;;;;4972580;28;20466;-75
2023/01/15 05:44:10;;;;;;;8.00;1.17;;;9.40;99.90;;;;;;4942198;28;20540;-76
2023/01/15 05:46:38;;;;;;;5.03;1.33;;;9.40;99.90;;;;;;4972622;28;20436;-76
2023/01/15 05:49:10;;;;;;;4.10;1.20;;;9.40;99.90;;;;;;4973398;28;20568;-75
2023/01/15 05:51:37;;;;;;;5.70;1.30;;;9.40;99.90;;;;;;4956548;28;20487;-76
2023/01/15 05:54:05;;;;;;;10.83;1.63;;;9.40;99.90;;;;;;4973159;28;20442;-75
2023/01/15 05:56:34;;;;;;;2.50;1.10;;;9.40;99.90;;;;;;4972265;28;20406;-76
2023/01/15 05:59:07;;;;;;;4.43;1.53;;;9.40;99.90;;;;;;4953173;28;20439;-76
2023/01/15 06:01:36;;;;;;;2.30;1.00;;;9.40;99.90;;;;;;4955682;28;20487;-76
2023/01/15 06:04:05;;;;;;;4.17;1.30;;;9.40;99.90;;;;;;4939853;28;20480;-76
2023/01/15 06:06:44;;;;;;;4.97;1.40;;;9.30;99.90;;;;;;4989341;28;20789;-76
2023/01/15 06:09:10;;;;;;;3.53;1.40;;;9.30;99.90;;;;;;4973991;28;21053;-76
2023/01/15 06:11:36;;;;;;;3.30;1.17;;;9.30;99.90;;;;;;4972007;28;20454;-76
2023/01/15 06:14:08;;;;;;;6.03;1.27;;;9.30;99.90;;;;;;4971875;28;20806;-76
2023/01/15 06:16:36;;;;;;;3.40;1.30;;;9.30;99.90;;;;;;4952966;29;20414;-76
2023/01/15 06:19:06;;;;;;;7.13;1.50;;;9.30;99.90;;;;;;4953857;28;20415;-76
2023/01/15 06:21:35;;;;;;;2.60;1.33;;;9.30;99.90;;;;;;4948014;28;20430;-76
2023/01/15 06:24:03;;;;;;;4.73;2.83;;;9.30;99.90;;;;;;4943889;28;20479;-76
2023/01/15 06:26:30;;;;;;;2.73;0.97;;;9.30;99.90;;;;;;4970795;28;20803;-76
2023/01/15 06:28:56;;;;;;;5.13;1.30;;;9.30;99.90;;;;;;4951876;29;20546;-76
2023/01/15 06:31:25;;;;;;;4.67;1.40;;;9.30;99.90;;;;;;4953520;28;20464;-76
2023/01/15 06:33:51;;;;;;;3.90;1.40;;;9.30;99.90;;;;;;4942512;28;20507;-75
2023/01/15 06:36:23;;;;;;;6.27;1.70;;;9.30;99.90;;;;;;4985047;28;20409;-76
2023/01/15 06:38:52;;;;;;;4.93;1.90;;;9.30;99.90;;;;;;4944956;28;20446;-76
2023/01/15 06:47:19;;;;;;;3.17;1.00;;;9.30;99.90;;;;;;4952834;28;20521;-76
2023/01/15 06:49:45;;;;;;;7.87;1.33;;;9.30;99.90;;;;;;4955730;28;20468;-76
2023/01/15 06:52:16;;;;;;;5.43;1.73;;;9.30;99.90;;;;;;4971995;28;20936;-76
2023/01/15 06:54:44;;;;;;;4.93;1.10;;;9.30;99.90;;;;;;4953137;28;20525;-75
2023/01/15 06:57:12;;;;;;;1.80;0.90;;;9.30;99.90;;;;;;4971490;28;20434;-76
2023/01/15 06:59:38;;;;;;;5.33;1.30;;;9.20;99.90;;;;;;4971323;28;20414;-76
2023/01/15 07:02:07;;;;;;;6.20;1.50;;;9.20;99.90;;;;;;4971888;28;20406;-75
2023/01/15 07:04:32;;;;;;;7.83;1.60;;;9.20;99.90;;;;;;4972481;28;20422;-76
2023/01/15 07:07:05;;;;;;;7.87;1.30;;;9.20;99.90;;;;;;4991498;28;20784;-76
2023/01/15 07:09:31;;;;;;;7.37;1.40;;;9.20;99.90;;;;;;4974064;28;20627;-76
2023/01/15 07:11:57;;;;;;;4.00;1.30;;;9.20;99.90;;;;;;4972411;28;20442;-75
2023/01/15 07:14:26;;;;;;;6.13;1.70;;;9.20;99.90;;;;;;4971524;28;20477;-76
2023/01/15 07:16:53;;;;;;;4.20;1.20;;;9.20;99.90;;;;;;4971095;28;20481;-75
2023/01/15 07:19:19;;;;;;;3.83;1.70;;;9.20;99.90;;;;;;4955345;28;20406;-76
2023/01/15 07:22:06;;;;;;;4.80;1.20;;;9.20;99.90;;;;;;4951387;29;20454;-76
2023/01/15 07:24:34;;;;;;;5.20;1.40;;;9.20;99.90;;;;;;4937323;28;20461;-76
2023/01/15 07:27:02;;;;;;;3.07;1.20;;;9.20;99.90;;;;;;4972708;28;20919;-76
2023/01/15 07:29:30;;;;;;;7.50;1.80;;;9.20;99.90;;;;;;4971181;28;20924;-76
2023/01/15 07:31:55;;;;;;;2.30;1.40;;;9.20;99.90;;;;;;4955307;28;20886;-75
2023/01/15 07:34:24;;;;;;;5.43;1.13;;;9.20;99.90;;;;;;4971108;28;20447;-76
2023/01/15 07:36:50;;;;;;;5.47;1.40;;;9.20;99.90;;;;;;4972224;28;20503;-76
2023/01/15 07:39:18;;;;;;;3.87;1.17;;;9.20;99.90;;;;;;4989058;28;20787;-76
2023/01/15 07:50:14;;;;;;;2.43;0.90;;;9.10;99.90;;;;;;4974096;28;21006;-77
2023/01/15 07:52:43;;;;;;;4.23;1.90;;;9.10;99.90;;;;;;4942852;28;20430;-77
2023/01/15 07:55:13;;;;;;;2.90;1.03;;;9.10;99.90;;;;;;4974309;28;20453;-77
2023/01/15 07:57:41;;;;;;;3.40;1.20;;;9.10;99.90;;;;;;4975790;28;20433;-76
2023/01/15 08:00:20;;;;;;;3.77;1.57;;;9.10;99.90;;;;;;4954817;29;20558;-77
2023/01/15 08:02:48;;;;;;;2.27;1.00;;;9.10;99.90;;;;;;4956273;29;20458;-76
2023/01/15 08:05:19;;;;;;;3.60;1.27;;;9.10;99.90;;;;;;4968587;28;20470;-77
2023/01/15 08:07:46;;;;;;;2.47;1.10;;;9.10;99.90;;;;;;4975395;28;20438;-76
2023/01/15 08:10:12;;;;;;;5.60;1.27;;;9.10;99.90;;;;;;4973639;28;20422;-77
2023/01/15 08:15:33;;;;;;;4.70;1.63;;;9.10;99.90;;;;;;4975388;28;20465;-76
2023/01/15 08:17:59;;;;;;;3.90;1.13;;;9.10;99.90;;;;;;4974042;28;20427;-76
2023/01/15 08:20:25;;;;;;;2.30;1.10;;;9.10;99.90;;;;;;4974794;28;20421;-77
2023/01/15 08:22:55;;;;;;;5.30;1.47;;;9.10;99.90;;;;;;4957987;28;20433;-76
2023/01/15 08:25:24;;;;;;;1.30;0.80;;;9.10;99.90;;;;;;4975195;28;20801;-76
2023/01/15 08:27:54;;;;;;;7.60;1.37;;;9.10;99.90;;;;;;4973603;28;20844;-76
2023/01/15 08:30:23;;;;;;;4.43;1.40;;;9.10;99.90;;;;;;4954319;29;20422;-77
2023/01/15 08:32:51;;;;;;;5.50;1.47;;;9.10;99.90;;;;;;4955632;29;20938;-76
2023/01/15 08:35:17;;;;;;;7.33;1.17;;;9.10;99.90;;;;;;4960577;28;20450;-76
2023/01/15 08:37:45;;;;;;;3.50;1.03;;;9.00;99.90;;;;;;4974167;28;20401;-76
2023/01/15 08:40:16;;;;;;;2.03;1.27;;;9.00;99.90;;;;;;4957606;28;20444;-76
2023/01/15 08:42:44;;;;;;;6.10;1.10;;;9.00;99.90;;;;;;4974939;28;20472;-76
2023/01/15 08:45:11;;;;;;;4.23;0.87;;;9.00;99.90;;;;;;4957281;28;20473;-77
2023/01/15 08:47:39;;;;;;;5.23;1.40;;;9.00;99.90;;;;;;4973762;28;20553;-77
2023/01/15 08:50:07;;;;;;;3.00;1.10;;;9.00;99.90;;;;;;4972530;28;20495;-76
2023/01/15 08:52:37;;;;;;;8.00;1.37;;;9.00;99.90;;;;;;4973350;28;20497;-76
2023/01/15 08:55:05;;;;;;;3.93;1.30;;;9.00;99.90;;;;;;4974572;28;20446;-77
2023/01/15 08:57:34;;;;;;;3.60;0.93;;;9.00;99.90;;;;;;4976305;28;20418;-76
2023/01/15 09:00:04;;;;;;;2.20;0.90;;;9.00;99.90;;;;;;4990089;28;20448;-77
2023/01/15 09:02:30;;;;;;;5.43;1.63;;;9.00;99.90;;;;;;4957120;28;20430;-77
2023/01/15 09:04:56;;;;;;;1.27;0.80;;;9.00;99.90;;;;;;4957102;28;20813;-76
2023/01/15 09:07:24;;;;;;;9.50;0.87;;;9.00;99.90;;;;;;4973305;28;20448;-76
2023/01/15 09:09:50;;;;;;;1.70;1.00;;;9.00;99.90;;;;;;4957031;28;20437;-77
2023/01/15 09:12:16;;;;;;;2.73;1.13;;;9.00;99.90;;;;;;4974052;28;20441;-77
2023/01/15 09:14:44;;;;;;;3.60;1.10;;;9.00;99.90;;;;;;4974002;28;20511;-77
2023/01/15 09:17:10;;;;;;;5.47;0.97;;;8.90;99.90;;;;;;4974145;28;20406;-77
2023/01/15 09:19:39;;;;;;;4.57;1.03;;;8.90;99.90;;;;;;4973291;28;20422;-77
2023/01/15 09:22:05;;;;;;;3.27;1.40;;;8.90;99.90;;;;;;4956739;28;20414;-76
2023/01/15 09:24:33;;;;;;;3.30;1.27;;;8.90;99.90;;;;;;4975163;28;20456;-76
2023/01/15 09:26:59;;;;;;;5.53;1.07;;;8.90;99.90;;;;;;4993273;28;20406;-76
2023/01/15 09:29:25;;;;;;;6.40;1.07;;;8.90;99.90;;;;;;4973264;28;20452;-76
2023/01/15 09:31:53;;;;;;;5.03;0.90;;;8.90;99.90;;;;;;4972803;28;20513;-76
2023/01/15 09:34:22;;;;;;;4.90;0.90;;;8.90;99.90;;;;;;4940759;28;20521;-76
2023/01/15 09:36:49;;;;;;;5.40;1.30;;;8.90;99.90;;;;;;4986780;28;20460;-76
2023/01/15 09:39:15;;;;;;;2.60;0.87;;;8.90;99.90;;;;;;4972917;28;20488;-77
2023/01/15 09:42:06;;;;;;;4.07;0.80;;;8.90;99.90;;;;;;4972163;28;20930;-76
2023/01/15 09:45:08;;;;;;;4.97;1.60;;;8.90;99.90;;;;;;4956432;28;20465;-76
2023/01/15 09:47:41;;;;;;;3.50;1.10;;;8.90;99.90;;;;;;4959777;28;20473;-76
2023/01/15 09:50:24;;;;;;;5.43;1.13;;;8.90;99.90;;;;;;4956459;28;20437;-77
2023/01/15 09:53:21;;;;;;;2.23;1.00;;;8.90;99.90;;;;;;4971837;28;20417;-77
2023/01/15 09:55:53;;;;;;;2.60;1.00;;;8.90;99.90;;;;;;4964639;28;20455;-76
2023/01/15 09:58:32;;;;;;;6.97;1.27;;;8.80;99.90;;;;;;4972226;28;20387;-77
2023/01/15 10:01:05;;;;;;;1.87;0.70;;;8.80;99.90;;;;;;4971605;28;20985;-76
2023/01/15 10:03:42;;;;;;;2.80;1.17;;;8.80;99.90;;;;;;4953802;28;20966;-76
2023/01/15 10:06:11;;;;;;;5.23;1.00;;;8.80;99.90;;;;;;4971950;28;20450;-76
2023/01/15 10:08:47;;;;;;;3.70;1.37;;;8.80;99.90;;;;;;4971579;28;20469;-76
2023/01/15 10:11:16;;;;;;;4.67;0.90;;;8.80;99.90;;;;;;4967204;28;20456;-76
2023/01/15 10:14:12;;;;;;;2.67;1.10;;;8.90;99.90;;;;;;4956669;28;20469;-77
2023/01/15 10:16:38;;;;;;;3.60;1.27;;;8.80;99.90;;;;;;4966658;28;20830;-76
2023/01/15 10:19:09;;;;;;;5.13;1.27;;;8.80;99.90;;;;;;4954671;28;20476;-77
2023/01/15 10:22:09;;;;;;;3.63;0.87;;;8.80;99.90;;;;;;4955469;28;20834;-76
2023/01/15 10:24:49;;;;;;;8.43;1.50;;;8.80;99.90;;;;;;4964380;28;20485;-77
2023/01/15 10:27:22;;;;;;;4.93;1.47;;;8.80;99.90;;;;;;4952004;28;20459;-77
2023/01/15 10:30:12;;;;;;;2.63;0.90;;;8.80;99.90;;;;;;4953874;28;20969;-77
2023/01/15 10:32:46;;;;;;;3.23;1.30;;;8.80;99.90;;;;;;4954489;28;20468;-75
2023/01/15 10:35:30;;;;;;;5.90;1.20;;;8.80;99.90;;;;;;4953235;28;20823;-75
2023/01/15 10:38:29;;;;;;;5.30;1.43;;;8.80;99.90;;;;;;4957313;28;20441;-79
2023/01/15 10:40:55;;;;;;;3.40;1.43;;;8.80;99.90;;;;;;4981932;28;20423;-78
2023/01/15 10:43:49;;;;;;;5.20;1.20;;;8.80;99.90;;;;;;4933447;28;20450;-78
2023/01/15 10:46:32;;;;;;;4.53;1.53;;;8.80;99.90;;;;;;4970232;28;20461;-78
2023/01/15 10:49:17;;;;;;;6.20;1.30;;;8.80;99.90;;;;;;4952884;28;20452;-78
2023/01/15 10:51:49;;;;;;;5.43;1.50;;;8.80;99.90;;;;;;4966456;28;20841;-78
2023/01/15 10:54:33;;;;;;;9.43;1.97;;;8.80;99.90;;;;;;4971819;28;20950;-78
2023/01/15 10:57:26;;;;;;;6.83;1.50;;;8.80;99.90;;;;;;4950097;28;20452;-78
2023/01/15 11:00:00;;;;;;;3.47;1.00;;;8.80;99.90;;;;;;4954514;28;20461;-79
2023/01/15 11:02:37;;;;;;;6.33;1.40;;;8.80;99.90;;;;;;4970361;28;20998;-78
2023/01/15 11:05:18;;;;;;;2.97;1.60;;;8.80;99.90;;;;;;4969692;28;21077;-77
2023/01/15 11:07:50;;;;;;;4.83;1.30;;;8.80;99.90;;;;;;4970550;28;20573;-78
2023/01/15 11:10:19;;;;;;;3.70;1.40;;;8.80;99.90;;;;;;4951046;29;20435;-78
2023/01/15 11:21:20;;;;;;;3.10;1.27;;;8.80;99.90;;;;;;4974203;28;20856;-78
2023/01/15 11:23:50;;;;;;;7.87;1.40;;;8.80;99.90;;;;;;4954919;29;20529;-78
2023/01/15 11:26:21;;;;;;;6.50;2.00;;;8.80;99.90;;;;;;4952133;28;20446;-78
2023/01/15 11:28:48;;;;;;;3.57;1.40;;;8.80;99.90;;;;;;4970687;28;20454;-78
2023/01/15 11:31:15;;;;;;;3.17;1.30;;;8.80;99.90;;;;;;4973680;28;20939;-78
2023/01/15 11:33:57;;;;;;;9.60;1.20;;;8.80;99.90;;;;;;4973821;28;21035;-78
2023/01/15 11:36:46;;;;;;;4.73;1.60;;;8.80;99.90;;;;;;4940748;28;20977;-78
2023/01/15 11:39:27;;;;;;;3.17;1.53;;;8.80;99.90;;;;;;4972421;28;20518;-77
2023/01/15 11:50:54;;;;;;;4.30;1.07;;;8.80;99.90;;;;;;4969277;28;20518;-77
2023/01/15 11:53:26;;;;;;;3.70;0.90;;;8.80;99.90;;;;;;4953800;28;20549;-77
2023/01/15 11:56:05;;;;;;;2.33;1.30;;;8.80;99.90;;;;;;4970490;28;20434;-77
2023/01/15 11:58:38;;;;;;;2.47;1.20;;;8.80;99.90;;;;;;4955637;28;20444;-77
2023/01/15 12:01:04;;;;;;;4.60;1.53;;;8.80;99.90;;;;;;4971146;28;20444;-77
2023/01/15 12:03:34;;;;;;;4.00;1.17;;;8.80;99.90;;;;;;4953171;29;20441;-78
2023/01/15 12:06:09;;;;;;;2.80;1.07;;;8.80;99.90;;;;;;4939266;28;20597;-77
2023/01/15 12:08:42;;;;;;;3.23;1.00;;;8.80;99.90;;;;;;4991971;28;20809;-77
2023/01/15 12:11:34;;;;;;;2.07;1.10;;;8.80;99.90;;;;;;4953978;28;20472;-77
2023/01/15 12:14:08;;;;;;;2.70;1.00;;;8.80;99.90;;;;;;4973836;28;20959;-77
2023/01/15 12:17:06;;;;;;;1.50;1.00;;;8.80;99.90;;;;;;4957212;28;20468;-76
2023/01/15 12:19:53;;;;;;;4.83;1.13;;;8.80;99.90;;;;;;4959865;28;20493;-78
2023/01/15 12:22:38;;;;;;;2.50;0.90;;;8.80;99.90;;;;;;4975563;28;20429;-78
2023/01/15 12:25:19;;;;;;;4.23;1.33;;;8.80;99.90;;;;;;4974753;28;20825;-78
2023/01/15 12:27:51;;;;;;;2.53;1.00;;;8.80;99.90;;;;;;4959596;28;20961;-78
2023/01/15 12:30:51;;;;;;;2.13;1.20;;;8.80;99.90;;;;;;4973900;28;20426;-77
2023/01/15 12:33:39;;;;;;;3.37;0.97;;;8.80;99.90;;;;;;4954913;28;20935;-78
2023/01/15 12:36:30;;;;;;;3.53;1.47;;;8.80;99.90;;;;;;4958400;28;20450;-77
2023/01/15 12:39:09;;;;;;;6.43;0.97;;;8.80;99.90;;;;;;4975761;28;20444;-78
2023/01/15 12:47:48;;;;;;;5.30;1.20;;;8.80;99.90;;;;;;4972603;28;20977;-78
2023/01/15 12:50:28;;;;;;;5.53;1.70;;;8.80;99.90;;;;;;4973686;28;20921;-73
2023/01/15 12:53:20;;;;;;;3.73;1.07;;;8.80;99.90;;;;;;4942377;28;20461;-73
2023/01/15 12:56:18;;;;;;;3.43;1.20;;;8.80;99.90;;;;;;4973635;28;20512;-73
2023/01/15 12:59:15;;;;;;;3.97;1.23;;;8.80;99.90;;;;;;4958404;28;20528;-73
2023/01/15 13:01:51;;;;;;;3.53;1.53;;;8.80;99.90;;;;;;4942572;28;20444;-72
2023/01/15 13:04:31;;;;;;;3.60;1.27;;;8.80;99.90;;;;;;4973912;28;20990;-74
2023/01/15 13:07:13;;;;;;;3.90;1.00;;;8.80;99.90;;;;;;4936163;29;20463;-74
2023/01/15 13:10:00;;;;;;;1.80;1.00;;;8.80;99.90;;;;;;4969973;28;20482;-74
2023/01/15 13:12:30;;;;;;;3.17;1.17;;;8.80;99.90;;;;;;4968963;28;20446;-77
2023/01/15 13:15:02;;;;;;;1.50;0.93;;;8.80;99.90;;;;;;4954262;28;20466;-77
2023/01/15 13:17:49;;;;;;;7.53;1.17;;;8.80;99.90;;;;;;4970540;28;20481;-77
2023/01/15 13:20:35;;;;;;;1.67;0.80;;;8.80;99.90;;;;;;4958043;28;20461;-75
2023/01/15 13:23:39;;;;;;;3.97;1.30;;;8.80;99.90;;;;;;4970487;28;20440;-75
2023/01/15 13:26:30;;;;;;;3.37;0.93;;;8.80;99.90;;;;;;4969647;28;20973;-75
2023/01/15 13:28:56;;;;;;;3.33;1.30;;;8.80;99.90;;;;;;4942048;28;20464;-75
2023/01/15 13:32:02;;;;;;;5.10;0.87;;;8.80;99.90;;;;;;4954661;28;20989;-75
2023/01/15 13:34:43;;;;;;;3.60;1.13;;;8.80;99.90;;;;;;4950537;29;20863;-75
2023/01/15 13:37:32;;;;;;;9.20;1.20;;;8.80;99.90;;;;;;4969336;28;20483;-75
2023/01/15 13:40:13;;;;;;;2.00;1.00;;;8.80;99.90;;;;;;4971175;28;20437;-74
2023/01/15 13:42:44;;;;;;;2.53;0.93;;;8.80;99.90;;;;;;4954485;28;20496;-75
2023/01/15 13:45:47;;;;;;;4.03;1.53;;;8.80;99.90;;;;;;4969933;28;20464;-75
2023/01/15 13:48:22;;;;;;;4.23;1.40;;;8.80;99.90;;;;;;4973740;28;20871;-75
2023/01/15 13:50:56;;;;;;;1.70;1.10;;;8.80;99.90;;;;;;4971863;28;20437;-74
2023/01/15 13:53:34;;;;;;;3.87;1.40;;;8.80;99.90;;;;;;4952670;28;20466;-75
2023/01/15 13:56:11;;;;;;;4.40;1.23;;;8.80;99.90;;;;;;4964941;28;20433;-76
2023/01/15 13:58:50;;;;;;;4.40;1.33;;;8.80;99.90;;;;;;4964698;28;20542;-75
2023/01/15 14:01:19;;;;;;;3.23;1.10;;;8.80;99.90;;;;;;4977959;28;21099;-74
2023/01/15 14:04:12;;;;;;;3.23;0.97;;;8.80;99.90;;;;;;4971650;28;20465;-74
2023/01/15 14:06:50;;;;;;;3.90;1.07;;;8.80;99.90;;;;;;4956066;28;20425;-75
2023/01/15 14:09:26;;;;;;;2.43;1.00;;;8.80;99.90;;;;;;4988052;28;20472;-74
2023/01/15 14:11:55;;;;;;;3.73;1.10;;;8.80;99.90;;;;;;4956999;28;20455;-74
2023/01/15 14:14:33;;;;;;;3.83;1.10;;;8.80;99.90;;;;;;4963741;28;20457;-74
2023/01/15 14:17:13;;;;;;;4.20;1.17;;;8.80;99.90;;;;;;4972981;28;20792;-76
2023/01/15 14:20:06;;;;;;;5.03;1.63;;;8.80;99.90;;;;;;4972252;28;20427;-75
2023/01/15 14:23:00;;;;;;;5.47;1.47;;;8.80;99.90;;;;;;4971872;28;20432;-76
2023/01/15 14:25:46;;;;;;;4.47;0.93;;;8.80;99.90;;;;;;4976880;28;20457;-75